sensor_id;sensor_type;location;lat;lon;timestamp;temperature;humidity
48007;DHT22;33771;48.180;11.400;2023-10-31T00:00:43;10.30;99.90
48007;DHT22;33771;48.180;11.400;2023-10-31T00:03:09;10.20;99.90
48007;DHT22;33771;48.180;11.400;2023-10-31T00:05:36;10.20;99.90
48007;DHT22;33771;48.180;11.400;2023-10-31T00:08:01;10.10;99.90
48007;DHT22;33771;48.180;11.400;2023-10-31T00:10:28;10.10;99.90
48007;DHT22;33771;48.180;11.400;2023-10-31T00:12:54;10.00;99.90
48007;DHT22;33771;48.180;11.400;2023-10-31T00:15:20;10.00;99.90
48007;DHT22;33771;48.180;11.400;2023-10-31T00:17:46;9.90;99.90
48007;DHT22;33771;48.180;11.400;2023-10-31T00:20:11;9.90;99.90
48007;DHT22;33771;48.180;11.400;2023-10-31T00:22:37;9.90;99.90
48007;DHT22;33771;48.180;11.400;2023-10-31T00:25:02;9.80;99.90
48007;DHT22;33771;48.180;11.400;2023-10-31T00:27:28;9.80;99.90
48007;DHT22;33771;48.180;11.400;2023-10-31T00:29:54;9.80;99.90
48007;DHT22;33771;48.180;11.400;2023-10-31T00:32:19;9.80;99.90
48007;DHT22;33771;48.180;11.400;2023-10-31T00:34:45;9.70;99.90
48007;DHT22;33771;48.180;11.400;2023-10-31T00:37:11;9.70;99.90
48007;DHT22;33771;48.180;11.400;2023-10-31T00:39:36;9.60;99.90
48007;DHT22;33771;48.180;11.400;2023-10-31T00:42:02;9.60;99.90
48007;DHT22;33771;48.180;11.400;2023-10-31T00:44:27;9.60;99.90
48007;DHT22;33771;48.180;11.400;2023-10-31T00:46:53;9.60;99.90
48007;DHT22;33771;48.180;11.400;2023-10-31T00:49:18;9.60;99.90
48007;DHT22;33771;48.180;11.400;2023-10-31T00:51:44;9.60;99.90
48007;DHT22;33771;48.180;11.400;2023-10-31T00:54:09;9.50;99.90
48007;DHT22;33771;48.180;11.400;2023-10-31T00:56:35;9.50;99.90
48007;DHT22;33771;48.180;11.400;2023-10-31T00:59:01;9.50;99.90
48007;DHT22;33771;48.180;11.400;2023-10-31T01:01:26;9.50;99.90
48007;DHT22;33771;48.180;11.400;2023-10-31T01:03:52;9.50;99.90
48007;DHT22;33771;48.180;11.400;2023-10-31T01:06:17;9.50;99.90
48007;DHT22;33771;48.180;11.400;2023-10-31T01:08:43;9.50;99.90
48007;DHT22;33771;48.180;11.400;2023-10-31T01:11:09;9.50;99.90
48007;DHT22;33771;48.180;11.400;2023-10-31T01:13:34;9.50;99.90
48007;DHT22;33771;48.180;11.400;2023-10-31T01:16:00;9.50;99.90
48007;DHT22;33771;48.180;11.400;2023-10-31T01:18:25;9.50;99.90
48007;DHT22;33771;48.180;11.400;2023-10-31T01:20:51;9.50;99.90
48007;DHT22;33771;48.180;11.400;2023-10-31T01:23:17;9.40;99.90
48007;DHT22;33771;48.180;11.400;2023-10-31T01:25:42;9.50;99.90
48007;DHT22;33771;48.180;11.400;2023-10-31T01:28:08;9.40;99.90
48007;DHT22;33771;48.180;11.400;2023-10-31T01:30:34;9.40;99.90
48007;DHT22;33771;48.180;11.400;2023-10-31T01:32:59;9.40;99.90
48007;DHT22;33771;48.180;11.400;2023-10-31T01:35:25;9.40;99.90
48007;DHT22;33771;48.180;11.400;2023-10-31T01:37:50;9.40;99.90
48007;DHT22;33771;48.180;11.400;2023-10-31T01:40:16;9.40;99.90
48007;DHT22;33771;48.180;11.400;2023-10-31T01:42:41;9.40;99.90
48007;DHT22;33771;48.180;11.400;2023-10-31T01:45:07;9.40;99.90
48007;DHT22;33771;48.180;11.400;2023-10-31T01:47:33;9.40;99.90
48007;DHT22;33771;48.180;11.400;2023-10-31T01:50:00;9.40;99.90
48007;DHT22;33771;48.180;11.400;2023-10-31T01:52:26;9.50;99.90
48007;DHT22;33771;48.180;11.400;2023-10-31T01:54:52;9.50;99.90
48007;DHT22;33771;48.180;11.400;2023-10-31T01:57:21;9.50;99.90
48007;DHT22;33771;48.180;11.400;2023-10-31T01:59:47;9.50;99.90
48007;DHT22;33771;48.180;11.400;2023-10-31T02:02:13;9.50;99.90
48007;DHT22;33771;48.180;11.400;2023-10-31T02:04:39;9.50;99.90
48007;DHT22;33771;48.180;11.400;2023-10-31T02:07:05;9.50;99.90
48007;DHT22;33771;48.180;11.400;2023-10-31T02:09:32;9.50;99.90
48007;DHT22;33771;48.180;11.400;2023-10-31T02:11:57;9.50;99.90
48007;DHT22;33771;48.180;11.400;2023-10-31T02:14:24;9.40;99.90
48007;DHT22;33771;48.180;11.400;2023-10-31T02:16:50;9.40;99.90
48007;DHT22;33771;48.180;11.400;2023-10-31T02:19:19;9.40;99.90
48007;DHT22;33771;48.180;11.400;2023-10-31T02:21:44;9.40;99.90
48007;DHT22;33771;48.180;11.400;2023-10-31T02:24:10;9.40;99.90
48007;DHT22;33771;48.180;11.400;2023-10-31T02:26:36;9.50;99.90
48007;DHT22;33771;48.180;11.400;2023-10-31T02:29:02;9.40;99.90
48007;DHT22;33771;48.180;11.400;2023-10-31T02:31:28;9.40;99.90
48007;DHT22;33771;48.180;11.400;2023-10-31T02:33:54;9.40;99.90
48007;DHT22;33771;48.180;11.400;2023-10-31T02:36:19;9.40;99.90
48007;DHT22;33771;48.180;11.400;2023-10-31T02:38:45;9.40;99.90
48007;DHT22;33771;48.180;11.400;2023-10-31T02:41:11;9.40;99.90
48007;DHT22;33771;48.180;11.400;2023-10-31T02:43:38;9.30;99.90
48007;DHT22;33771;48.180;11.400;2023-10-31T02:46:04;9.30;99.90
48007;DHT22;33771;48.180;11.400;2023-10-31T02:48:29;9.30;99.90
48007;DHT22;33771;48.180;11.400;2023-10-31T02:50:57;9.30;99.90
48007;DHT22;33771;48.180;11.400;2023-10-31T02:53:23;9.30;99.90
48007;DHT22;33771;48.180;11.400;2023-10-31T02:55:49;9.30;99.90
48007;DHT22;33771;48.180;11.400;2023-10-31T02:58:14;9.30;99.90
48007;DHT22;33771;48.180;11.400;2023-10-31T03:00:40;9.30;99.90
48007;DHT22;33771;48.180;11.400;2023-10-31T03:03:05;9.20;99.90
48007;DHT22;33771;48.180;11.400;2023-10-31T03:05:31;9.30;99.90
48007;DHT22;33771;48.180;11.400;2023-10-31T03:07:56;9.30;99.90
48007;DHT22;33771;48.180;11.400;2023-10-31T03:10:22;9.30;99.90
48007;DHT22;33771;48.180;11.400;2023-10-31T03:12:48;9.30;99.90
48007;DHT22;33771;48.180;11.400;2023-10-31T03:15:13;9.20;99.90
48007;DHT22;33771;48.180;11.400;2023-10-31T03:17:39;9.30;99.90
48007;DHT22;33771;48.180;11.400;2023-10-31T03:20:05;9.30;99.90
48007;DHT22;33771;48.180;11.400;2023-10-31T03:22:31;9.30;99.90
48007;DHT22;33771;48.180;11.400;2023-10-31T03:24:57;9.30;99.90
48007;DHT22;33771;48.180;11.400;2023-10-31T03:27:22;9.30;99.90
48007;DHT22;33771;48.180;11.400;2023-10-31T03:29:48;9.20;99.90
48007;DHT22;33771;48.180;11.400;2023-10-31T03:32:14;9.20;99.90
48007;DHT22;33771;48.180;11.400;2023-10-31T03:34:40;9.20;99.90
48007;DHT22;33771;48.180;11.400;2023-10-31T03:37:06;9.20;99.90
48007;DHT22;33771;48.180;11.400;2023-10-31T03:39:32;9.20;99.90
48007;DHT22;33771;48.180;11.400;2023-10-31T03:41:57;9.20;99.90
48007;DHT22;33771;48.180;11.400;2023-10-31T03:44:23;9.20;99.90
48007;DHT22;33771;48.180;11.400;2023-10-31T03:46:49;9.20;99.90
48007;DHT22;33771;48.180;11.400;2023-10-31T03:49:14;9.20;99.90
48007;DHT22;33771;48.180;11.400;2023-10-31T03:51:40;9.20;99.90
48007;DHT22;33771;48.180;11.400;2023-10-31T03:54:05;9.20;99.90
48007;DHT22;33771;48.180;11.400;2023-10-31T03:56:38;9.20;99.90
48007;DHT22;33771;48.180;11.400;2023-10-31T03:59:04;9.20;99.90
48007;DHT22;33771;48.180;11.400;2023-10-31T04:01:30;9.10;99.90
48007;DHT22;33771;48.180;11.400;2023-10-31T04:03:55;9.20;99.90
48007;DHT22;33771;48.180;11.400;2023-10-31T04:06:21;9.10;99.90
48007;DHT22;33771;48.180;11.400;2023-10-31T04:08:47;9.20;99.90
48007;DHT22;33771;48.180;11.400;2023-10-31T04:11:13;9.20;99.90
48007;DHT22;33771;48.180;11.400;2023-10-31T04:13:38;9.20;99.90
48007;DHT22;33771;48.180;11.400;2023-10-31T04:16:04;9.20;99.90
48007;DHT22;33771;48.180;11.400;2023-10-31T04:18:30;9.20;99.90
48007;DHT22;33771;48.180;11.400;2023-10-31T04:20:55;9.20;99.90
48007;DHT22;33771;48.180;11.400;2023-10-31T04:23:21;9.20;99.90
48007;DHT22;33771;48.180;11.400;2023-10-31T04:25:46;9.20;99.90
48007;DHT22;33771;48.180;11.400;2023-10-31T04:28:12;9.20;99.90
48007;DHT22;33771;48.180;11.400;2023-10-31T04:30:39;9.20;99.90
48007;DHT22;33771;48.180;11.400;2023-10-31T04:33:04;9.20;99.90
48007;DHT22;33771;48.180;11.400;2023-10-31T04:35:30;9.20;99.90
48007;DHT22;33771;48.180;11.400;2023-10-31T04:37:55;9.10;99.90
48007;DHT22;33771;48.180;11.400;2023-10-31T04:40:22;9.10;99.90
48007;DHT22;33771;48.180;11.400;2023-10-31T04:42:47;9.10;99.90
48007;DHT22;33771;48.180;11.400;2023-10-31T04:45:13;9.10;99.90
48007;DHT22;33771;48.180;11.400;2023-10-31T04:47:39;9.10;99.90
48007;DHT22;33771;48.180;11.400;2023-10-31T04:50:05;9.10;99.90
48007;DHT22;33771;48.180;11.400;2023-10-31T04:52:31;9.10;99.90
48007;DHT22;33771;48.180;11.400;2023-10-31T04:54:56;9.10;99.90
48007;DHT22;33771;48.180;11.400;2023-10-31T04:57:22;9.10;99.90
48007;DHT22;33771;48.180;11.400;2023-10-31T04:59:48;9.10;99.90
48007;DHT22;33771;48.180;11.400;2023-10-31T05:02:14;9.10;99.90
48007;DHT22;33771;48.180;11.400;2023-10-31T05:04:39;9.10;99.90
48007;DHT22;33771;48.180;11.400;2023-10-31T05:07:08;9.10;99.90
48007;DHT22;33771;48.180;11.400;2023-10-31T05:09:33;9.10;99.90
48007;DHT22;33771;48.180;11.400;2023-10-31T05:11:59;9.10;99.90
48007;DHT22;33771;48.180;11.400;2023-10-31T05:14:26;9.10;99.90
48007;DHT22;33771;48.180;11.400;2023-10-31T05:16:51;9.10;99.90
48007;DHT22;33771;48.180;11.400;2023-10-31T05:19:17;9.10;99.90
48007;DHT22;33771;48.180;11.400;2023-10-31T05:21:42;9.10;99.90
48007;DHT22;33771;48.180;11.400;2023-10-31T05:24:08;9.10;99.90
48007;DHT22;33771;48.180;11.400;2023-10-31T05:26:34;9.20;99.90
48007;DHT22;33771;48.180;11.400;2023-10-31T05:28:59;9.10;99.90
48007;DHT22;33771;48.180;11.400;2023-10-31T05:31:25;9.10;99.90
48007;DHT22;33771;48.180;11.400;2023-10-31T05:33:51;9.10;99.90
48007;DHT22;33771;48.180;11.400;2023-10-31T05:36:22;9.10;99.90
48007;DHT22;33771;48.180;11.400;2023-10-31T05:38:47;9.10;99.90
48007;DHT22;33771;48.180;11.400;2023-10-31T05:41:14;9.10;99.90
48007;DHT22;33771;48.180;11.400;2023-10-31T05:43:40;9.10;99.90
48007;DHT22;33771;48.180;11.400;2023-10-31T05:46:06;9.10;99.90
48007;DHT22;33771;48.180;11.400;2023-10-31T05:48:32;9.10;99.90
48007;DHT22;33771;48.180;11.400;2023-10-31T05:50:57;9.10;99.90
48007;DHT22;33771;48.180;11.400;2023-10-31T05:53:23;9.10;99.90
48007;DHT22;33771;48.180;11.400;2023-10-31T05:55:49;9.20;99.90
48007;DHT22;33771;48.180;11.400;2023-10-31T05:58:14;9.20;99.90
48007;DHT22;33771;48.180;11.400;2023-10-31T06:00:40;9.20;99.90
48007;DHT22;33771;48.180;11.400;2023-10-31T06:03:06;9.10;99.90
48007;DHT22;33771;48.180;11.400;2023-10-31T06:05:31;9.20;99.90
48007;DHT22;33771;48.180;11.400;2023-10-31T06:07:57;9.10;99.90
48007;DHT22;33771;48.180;11.400;2023-10-31T06:10:22;9.20;99.90
48007;DHT22;33771;48.180;11.400;2023-10-31T06:12:48;9.20;99.90
48007;DHT22;33771;48.180;11.400;2023-10-31T06:15:13;9.30;99.90
48007;DHT22;33771;48.180;11.400;2023-10-31T06:17:39;9.20;99.90
48007;DHT22;33771;48.180;11.400;2023-10-31T06:20:07;9.20;99.90
48007;DHT22;33771;48.180;11.400;2023-10-31T06:22:33;9.30;99.90
48007;DHT22;33771;48.180;11.400;2023-10-31T06:24:59;9.30;99.90
48007;DHT22;33771;48.180;11.400;2023-10-31T06:27:24;9.30;99.90
48007;DHT22;33771;48.180;11.400;2023-10-31T06:29:50;9.30;99.90
48007;DHT22;33771;48.180;11.400;2023-10-31T06:32:15;9.30;99.90
48007;DHT22;33771;48.180;11.400;2023-10-31T06:34:41;9.30;99.90
48007;DHT22;33771;48.180;11.400;2023-10-31T06:37:07;9.30;99.90
48007;DHT22;33771;48.180;11.400;2023-10-31T06:39:32;9.30;99.90
48007;DHT22;33771;48.180;11.400;2023-10-31T06:41:58;9.30;99.90
48007;DHT22;33771;48.180;11.400;2023-10-31T06:44:23;9.30;99.90
48007;DHT22;33771;48.180;11.400;2023-10-31T06:46:49;9.30;99.90
48007;DHT22;33771;48.180;11.400;2023-10-31T06:49:15;9.30;99.90
48007;DHT22;33771;48.180;11.400;2023-10-31T06:51:41;9.30;99.90
48007;DHT22;33771;48.180;11.400;2023-10-31T06:54:06;9.30;99.90
48007;DHT22;33771;48.180;11.400;2023-10-31T06:56:32;9.30;99.90
48007;DHT22;33771;48.180;11.400;2023-10-31T06:58:58;9.30;99.90
48007;DHT22;33771;48.180;11.400;2023-10-31T07:01:23;9.40;99.90
48007;DHT22;33771;48.180;11.400;2023-10-31T07:03:50;9.30;99.90
48007;DHT22;33771;48.180;11.400;2023-10-31T07:06:15;9.40;99.90
48007;DHT22;33771;48.180;11.400;2023-10-31T07:08:41;9.30;99.90
48007;DHT22;33771;48.180;11.400;2023-10-31T07:11:06;9.40;99.90
48007;DHT22;33771;48.180;11.400;2023-10-31T07:13:32;9.40;99.90
48007;DHT22;33771;48.180;11.400;2023-10-31T07:15:57;9.40;99.90
48007;DHT22;33771;48.180;11.400;2023-10-31T07:18:23;9.40;99.90
48007;DHT22;33771;48.180;11.400;2023-10-31T07:20:48;9.40;99.90
48007;DHT22;33771;48.180;11.400;2023-10-31T07:23:14;9.40;99.90
48007;DHT22;33771;48.180;11.400;2023-10-31T07:25:40;9.50;99.90
48007;DHT22;33771;48.180;11.400;2023-10-31T07:28:05;9.50;99.90
48007;DHT22;33771;48.180;11.400;2023-10-31T07:30:31;9.50;99.90
48007;DHT22;33771;48.180;11.400;2023-10-31T07:32:56;9.50;99.90
48007;DHT22;33771;48.180;11.400;2023-10-31T07:35:22;9.50;99.90
48007;DHT22;33771;48.180;11.400;2023-10-31T07:37:47;9.60;99.90
48007;DHT22;33771;48.180;11.400;2023-10-31T07:40:14;9.60;99.90
48007;DHT22;33771;48.180;11.400;2023-10-31T07:42:39;9.60;99.90
48007;DHT22;33771;48.180;11.400;2023-10-31T07:45:05;9.70;99.90
48007;DHT22;33771;48.180;11.400;2023-10-31T07:47:31;9.70;99.90
48007;DHT22;33771;48.180;11.400;2023-10-31T07:49:56;9.70;99.90
48007;DHT22;33771;48.180;11.400;2023-10-31T07:52:22;9.70;99.90
48007;DHT22;33771;48.180;11.400;2023-10-31T07:54:48;9.70;99.90
48007;DHT22;33771;48.180;11.400;2023-10-31T07:57:13;9.80;99.90
48007;DHT22;33771;48.180;11.400;2023-10-31T07:59:39;9.80;99.90
48007;DHT22;33771;48.180;11.400;2023-10-31T08:02:04;9.80;99.90
48007;DHT22;33771;48.180;11.400;2023-10-31T08:04:31;9.80;99.90
48007;DHT22;33771;48.180;11.400;2023-10-31T08:06:56;9.80;99.90
48007;DHT22;33771;48.180;11.400;2023-10-31T08:09:22;9.80;99.90
48007;DHT22;33771;48.180;11.400;2023-10-31T08:11:47;9.80;99.90
48007;DHT22;33771;48.180;11.400;2023-10-31T08:14:13;9.80;99.90
48007;DHT22;33771;48.180;11.400;2023-10-31T08:16:41;9.80;99.90
48007;DHT22;33771;48.180;11.400;2023-10-31T08:19:07;9.70;99.90
48007;DHT22;33771;48.180;11.400;2023-10-31T08:21:32;9.80;99.90
48007;DHT22;33771;48.180;11.400;2023-10-31T08:24:03;9.70;99.90
48007;DHT22;33771;48.180;11.400;2023-10-31T08:26:30;9.80;99.90
48007;DHT22;33771;48.180;11.400;2023-10-31T08:28:56;9.70;99.90
48007;DHT22;33771;48.180;11.400;2023-10-31T08:31:21;9.80;99.90
48007;DHT22;33771;48.180;11.400;2023-10-31T08:33:47;9.80;99.90
48007;DHT22;33771;48.180;11.400;2023-10-31T08:36:13;9.80;99.90
48007;DHT22;33771;48.180;11.400;2023-10-31T08:38:38;9.90;99.90
48007;DHT22;33771;48.180;11.400;2023-10-31T08:41:04;9.90;99.90
48007;DHT22;33771;48.180;11.400;2023-10-31T08:43:29;9.90;99.90
48007;DHT22;33771;48.180;11.400;2023-10-31T08:45:55;9.90;99.90
48007;DHT22;33771;48.180;11.400;2023-10-31T08:48:20;9.90;99.90
48007;DHT22;33771;48.180;11.400;2023-10-31T08:50:46;9.90;99.90
48007;DHT22;33771;48.180;11.400;2023-10-31T08:53:12;9.90;99.90
48007;DHT22;33771;48.180;11.400;2023-10-31T08:55:37;9.90;99.90
48007;DHT22;33771;48.180;11.400;2023-10-31T08:58:03;9.90;99.90
48007;DHT22;33771;48.180;11.400;2023-10-31T09:00:29;9.90;99.90
48007;DHT22;33771;48.180;11.400;2023-10-31T09:02:55;9.90;99.90
48007;DHT22;33771;48.180;11.400;2023-10-31T09:05:22;9.90;99.90
48007;DHT22;33771;48.180;11.400;2023-10-31T09:07:47;10.00;99.90
48007;DHT22;33771;48.180;11.400;2023-10-31T09:10:13;10.00;99.90
48007;DHT22;33771;48.180;11.400;2023-10-31T09:12:39;10.00;99.90
48007;DHT22;33771;48.180;11.400;2023-10-31T09:15:04;10.10;99.90
48007;DHT22;33771;48.180;11.400;2023-10-31T09:17:30;10.10;99.90
48007;DHT22;33771;48.180;11.400;2023-10-31T09:19:56;10.20;99.90
48007;DHT22;33771;48.180;11.400;2023-10-31T09:22:21;10.20;99.90
48007;DHT22;33771;48.180;11.400;2023-10-31T09:24:47;10.20;99.90
48007;DHT22;33771;48.180;11.400;2023-10-31T09:27:13;10.30;99.90
48007;DHT22;33771;48.180;11.400;2023-10-31T09:29:38;10.30;99.90
48007;DHT22;33771;48.180;11.400;2023-10-31T09:32:05;10.30;99.90
48007;DHT22;33771;48.180;11.400;2023-10-31T09:34:31;10.30;99.90
48007;DHT22;33771;48.180;11.400;2023-10-31T09:36:58;10.30;99.90
48007;DHT22;33771;48.180;11.400;2023-10-31T09:39:23;10.30;99.90
48007;DHT22;33771;48.180;11.400;2023-10-31T09:41:49;10.30;99.90
48007;DHT22;33771;48.180;11.400;2023-10-31T09:44:15;10.30;99.90
48007;DHT22;33771;48.180;11.400;2023-10-31T09:46:40;10.30;99.90
48007;DHT22;33771;48.180;11.400;2023-10-31T09:49:10;10.30;99.90
48007;DHT22;33771;48.180;11.400;2023-10-31T09:51:37;10.30;99.90
48007;DHT22;33771;48.180;11.400;2023-10-31T09:54:04;10.30;99.90
48007;DHT22;33771;48.180;11.400;2023-10-31T09:56:31;10.40;99.90
48007;DHT22;33771;48.180;11.400;2023-10-31T09:59:00;10.30;99.90
48007;DHT22;33771;48.180;11.400;2023-10-31T10:01:28;10.40;99.90
48007;DHT22;33771;48.180;11.400;2023-10-31T10:03:54;10.40;99.90
48007;DHT22;33771;48.180;11.400;2023-10-31T10:06:21;10.40;99.90
48007;DHT22;33771;48.180;11.400;2023-10-31T10:08:49;10.40;99.90
48007;DHT22;33771;48.180;11.400;2023-10-31T10:11:14;10.50;99.90
48007;DHT22;33771;48.180;11.400;2023-10-31T10:13:40;10.40;99.90
48007;DHT22;33771;48.180;11.400;2023-10-31T10:16:06;10.50;99.90
48007;DHT22;33771;48.180;11.400;2023-10-31T10:18:33;10.50;99.90
48007;DHT22;33771;48.180;11.400;2023-10-31T10:21:08;10.50;99.90
48007;DHT22;33771;48.180;11.400;2023-10-31T10:23:34;10.50;99.90
48007;DHT22;33771;48.180;11.400;2023-10-31T10:26:01;10.50;99.90
48007;DHT22;33771;48.180;11.400;2023-10-31T10:28:27;10.50;99.90
48007;DHT22;33771;48.180;11.400;2023-10-31T10:30:55;10.50;99.90
48007;DHT22;33771;48.180;11.400;2023-10-31T10:33:21;10.50;99.90
48007;DHT22;33771;48.180;11.400;2023-10-31T10:35:47;10.60;99.90
48007;DHT22;33771;48.180;11.400;2023-10-31T10:38:17;10.60;99.90
48007;DHT22;33771;48.180;11.400;2023-10-31T10:40:45;10.70;99.90
48007;DHT22;33771;48.180;11.400;2023-10-31T10:43:32;10.70;99.90
48007;DHT22;33771;48.180;11.400;2023-10-31T10:46:00;10.80;99.90
48007;DHT22;33771;48.180;11.400;2023-10-31T10:48:27;10.80;99.90
48007;DHT22;33771;48.180;11.400;2023-10-31T10:51:14;10.90;99.90
48007;DHT22;33771;48.180;11.400;2023-10-31T10:53:50;11.00;99.90
48007;DHT22;33771;48.180;11.400;2023-10-31T10:56:25;11.10;99.90
48007;DHT22;33771;48.180;11.400;2023-10-31T10:59:03;11.20;99.90
48007;DHT22;33771;48.180;11.400;2023-10-31T11:01:30;11.30;99.90
48007;DHT22;33771;48.180;11.400;2023-10-31T11:03:56;11.30;99.90
48007;DHT22;33771;48.180;11.400;2023-10-31T11:06:23;11.30;99.90
48007;DHT22;33771;48.180;11.400;2023-10-31T11:08:49;11.40;99.90
48007;DHT22;33771;48.180;11.400;2023-10-31T11:11:16;11.50;99.90
48007;DHT22;33771;48.180;11.400;2023-10-31T11:13:44;11.50;99.90
48007;DHT22;33771;48.180;11.400;2023-10-31T11:16:17;11.50;99.90
48007;DHT22;33771;48.180;11.400;2023-10-31T11:18:45;11.60;99.90
48007;DHT22;33771;48.180;11.400;2023-10-31T11:21:10;11.60;99.90
48007;DHT22;33771;48.180;11.400;2023-10-31T11:23:36;11.60;99.90
48007;DHT22;33771;48.180;11.400;2023-10-31T11:26:02;11.70;99.90
48007;DHT22;33771;48.180;11.400;2023-10-31T11:28:28;11.70;99.90
48007;DHT22;33771;48.180;11.400;2023-10-31T11:30:53;11.70;99.90
48007;DHT22;33771;48.180;11.400;2023-10-31T11:33:24;11.70;99.90
48007;DHT22;33771;48.180;11.400;2023-10-31T11:35:50;11.70;99.90
48007;DHT22;33771;48.180;11.400;2023-10-31T11:38:16;11.80;99.90
48007;DHT22;33771;48.180;11.400;2023-10-31T11:41:02;11.90;99.90
48007;DHT22;33771;48.180;11.400;2023-10-31T11:46:18;12.00;99.90
48007;DHT22;33771;48.180;11.400;2023-10-31T11:48:46;12.10;99.90
48007;DHT22;33771;48.180;11.400;2023-10-31T11:51:13;12.10;99.90
48007;DHT22;33771;48.180;11.400;2023-10-31T11:53:39;12.10;99.90
48007;DHT22;33771;48.180;11.400;2023-10-31T11:56:05;12.20;99.90
48007;DHT22;33771;48.180;11.400;2023-10-31T11:58:30;12.20;99.90
48007;DHT22;33771;48.180;11.400;2023-10-31T12:01:07;12.10;99.90
48007;DHT22;33771;48.180;11.400;2023-10-31T12:03:41;12.20;99.90
48007;DHT22;33771;48.180;11.400;2023-10-31T12:06:08;12.20;99.90
48007;DHT22;33771;48.180;11.400;2023-10-31T12:08:37;12.20;99.90
48007;DHT22;33771;48.180;11.400;2023-10-31T12:13:34;12.30;99.90
48007;DHT22;33771;48.180;11.400;2023-10-31T12:16:01;12.30;99.90
48007;DHT22;33771;48.180;11.400;2023-10-31T12:18:29;12.20;99.90
48007;DHT22;33771;48.180;11.400;2023-10-31T12:20:55;12.20;99.90
48007;DHT22;33771;48.180;11.400;2023-10-31T12:23:21;12.20;99.90
48007;DHT22;33771;48.180;11.400;2023-10-31T12:25:53;12.20;99.90
48007;DHT22;33771;48.180;11.400;2023-10-31T12:28:23;12.20;99.90
48007;DHT22;33771;48.180;11.400;2023-10-31T12:30:52;12.20;99.90
48007;DHT22;33771;48.180;11.400;2023-10-31T12:33:20;12.20;99.90
48007;DHT22;33771;48.180;11.400;2023-10-31T12:35:48;12.20;99.90
48007;DHT22;33771;48.180;11.400;2023-10-31T12:38:14;12.20;99.90
48007;DHT22;33771;48.180;11.400;2023-10-31T12:40:40;12.20;99.90
48007;DHT22;33771;48.180;11.400;2023-10-31T12:43:08;12.10;99.90
48007;DHT22;33771;48.180;11.400;2023-10-31T12:45:34;12.10;99.90
48007;DHT22;33771;48.180;11.400;2023-10-31T12:48:09;12.10;99.90
48007;DHT22;33771;48.180;11.400;2023-10-31T12:50:36;12.10;99.90
48007;DHT22;33771;48.180;11.400;2023-10-31T12:53:08;12.00;99.90
48007;DHT22;33771;48.180;11.400;2023-10-31T12:55:41;12.00;99.90
48007;DHT22;33771;48.180;11.400;2023-10-31T12:58:08;11.90;99.90
48007;DHT22;33771;48.180;11.400;2023-10-31T13:00:36;11.90;99.90
48007;DHT22;33771;48.180;11.400;2023-10-31T13:03:06;11.80;99.90
48007;DHT22;33771;48.180;11.400;2023-10-31T13:05:34;11.80;99.90
48007;DHT22;33771;48.180;11.400;2023-10-31T13:08:00;11.80;99.90
48007;DHT22;33771;48.180;11.400;2023-10-31T13:10:29;11.70;99.90
48007;DHT22;33771;48.180;11.400;2023-10-31T13:12:55;11.60;99.90
48007;DHT22;33771;48.180;11.400;2023-10-31T13:15:22;11.60;99.90
48007;DHT22;33771;48.180;11.400;2023-10-31T13:17:51;11.50;99.90
48007;DHT22;33771;48.180;11.400;2023-10-31T13:20:20;11.40;99.90
48007;DHT22;33771;48.180;11.400;2023-10-31T13:22:46;11.30;99.90
48007;DHT22;33771;48.180;11.400;2023-10-31T13:25:13;11.30;99.90
48007;DHT22;33771;48.180;11.400;2023-10-31T13:27:40;11.20;99.90
48007;DHT22;33771;48.180;11.400;2023-10-31T13:30:10;11.20;99.90
48007;DHT22;33771;48.180;11.400;2023-10-31T13:32:37;11.20;99.90
48007;DHT22;33771;48.180;11.400;2023-10-31T13:35:03;11.30;99.90
48007;DHT22;33771;48.180;11.400;2023-10-31T13:37:30;11.30;99.90
48007;DHT22;33771;48.180;11.400;2023-10-31T13:39:56;11.40;99.90
48007;DHT22;33771;48.180;11.400;2023-10-31T13:42:22;11.30;99.90
48007;DHT22;33771;48.180;11.400;2023-10-31T13:44:48;11.40;99.90
48007;DHT22;33771;48.180;11.400;2023-10-31T13:47:14;11.30;99.90
48007;DHT22;33771;48.180;11.400;2023-10-31T13:49:39;11.40;99.90
48007;DHT22;33771;48.180;11.400;2023-10-31T13:52:05;11.40;99.90
48007;DHT22;33771;48.180;11.400;2023-10-31T13:54:34;11.40;99.90
48007;DHT22;33771;48.180;11.400;2023-10-31T13:57:00;11.40;99.90
48007;DHT22;33771;48.180;11.400;2023-10-31T13:59:26;11.30;99.90
48007;DHT22;33771;48.180;11.400;2023-10-31T14:01:52;11.30;99.90
48007;DHT22;33771;48.180;11.400;2023-10-31T14:04:18;11.30;99.90
48007;DHT22;33771;48.180;11.400;2023-10-31T14:06:44;11.30;99.90
48007;DHT22;33771;48.180;11.400;2023-10-31T14:09:11;11.30;99.90
48007;DHT22;33771;48.180;11.400;2023-10-31T14:11:38;11.30;99.90
48007;DHT22;33771;48.180;11.400;2023-10-31T14:14:04;11.20;99.90
48007;DHT22;33771;48.180;11.400;2023-10-31T14:16:41;11.20;99.90
48007;DHT22;33771;48.180;11.400;2023-10-31T14:19:08;11.10;99.90
48007;DHT22;33771;48.180;11.400;2023-10-31T14:21:34;11.00;99.90
48007;DHT22;33771;48.180;11.400;2023-10-31T14:24:01;11.00;99.90
48007;DHT22;33771;48.180;11.400;2023-10-31T14:26:28;11.00;99.90
48007;DHT22;33771;48.180;11.400;2023-10-31T14:28:54;11.00;99.90
48007;DHT22;33771;48.180;11.400;2023-10-31T14:31:19;11.00;99.90
48007;DHT22;33771;48.180;11.400;2023-10-31T14:33:48;10.90;99.90
48007;DHT22;33771;48.180;11.400;2023-10-31T14:36:14;11.00;99.90
48007;DHT22;33771;48.180;11.400;2023-10-31T14:38:40;11.00;99.90
48007;DHT22;33771;48.180;11.400;2023-10-31T14:41:06;11.00;99.90
48007;DHT22;33771;48.180;11.400;2023-10-31T14:43:32;11.00;99.90
48007;DHT22;33771;48.180;11.400;2023-10-31T14:45:58;11.00;99.90
48007;DHT22;33771;48.180;11.400;2023-10-31T14:48:24;11.00;99.90
48007;DHT22;33771;48.180;11.400;2023-10-31T14:50:49;10.90;99.90
48007;DHT22;33771;48.180;11.400;2023-10-31T14:53:18;10.90;99.90
48007;DHT22;33771;48.180;11.400;2023-10-31T14:55:47;10.90;99.90
48007;DHT22;33771;48.180;11.400;2023-10-31T14:58:13;11.00;99.90
48007;DHT22;33771;48.180;11.400;2023-10-31T15:00:39;11.00;99.90
48007;DHT22;33771;48.180;11.400;2023-10-31T15:03:04;11.00;99.90
48007;DHT22;33771;48.180;11.400;2023-10-31T15:05:46;11.00;99.90
48007;DHT22;33771;48.180;11.400;2023-10-31T15:08:12;11.00;99.90
48007;DHT22;33771;48.180;11.400;2023-10-31T15:10:38;11.00;99.90
48007;DHT22;33771;48.180;11.400;2023-10-31T15:13:03;11.00;99.90
48007;DHT22;33771;48.180;11.400;2023-10-31T15:15:29;11.00;99.90
48007;DHT22;33771;48.180;11.400;2023-10-31T15:17:55;11.00;99.90
48007;DHT22;33771;48.180;11.400;2023-10-31T15:20:22;11.00;99.90
48007;DHT22;33771;48.180;11.400;2023-10-31T15:22:48;10.90;99.90
48007;DHT22;33771;48.180;11.400;2023-10-31T15:25:13;10.90;99.90